Middlebrook, Virginia
Current Conditions -  °F | °C
As of 7:35 AM on Sunday 23 Nov 2014 (Local Time) from KW13 Reporting Station
Clear Clear  
Wind Chill: 33°   Ceiling: Unl
Heat Index: 33°   Visibility: 10mi
Dew Point: 21°   Wind: 0mph
Humidity: 61%   Direction: NA
Pressure: 30.18"   Gusts: NA
Location:  38.05°N, 79.21°W
Report Text: KW13 231235Z AUTO 00000KT 10SM CLR 01/M06 A3018 RMK AO1 T00071060
Loading
Personal Weather Stations






























Interactive Weather Map New forecast layout! Learn more

10-Day Weather Forecast

Advertisements
Track Severe Weather on mobile